Edzard Schulte — 2CVX9 — position and weather

sailwx.info

Track history (hours):
 
Tides and Currents Weather Stations Pressure Air Temp Water Temp Dewpoint Dewpoint Depression Visibility Wind Speed Wind Dir Waves Ship Positions

Edzard Schulte

Last reported at 2014-Sep-15 19:33 UTC. Time now 2014-Sep-20 03:52 UTC.
Position N 43°59' W 076°35'.

Length 145 m; draft 8.1 m.

Type: Tanker. MMSI: 235076245.

Date/timePositionNaut miles runAvg speedWind from/ knotsBaromVisibWave heightAir tempDewpointWater temp
2014-Sep-15 19:33N 43°59' W 076°35'1111.3
2014-Sep-15 18:32N 44°06' W 076°24'8 7.9
2014-Sep-15 17:33N 44°12' W 076°16'114 5.4
2014-Sep-14 20:33N 45°14' W 074°01'6 5.8
2014-Sep-14 19:33N 45°18' W 073°56'1 0.9
2014-Sep-14 18:33N 45°19' W 073°55'3 3.1
2014-Sep-14 17:33N 45°21' W 073°52'8 8.5
2014-Sep-14 16:34N 45°25' W 073°41'5 5.1
2014-Sep-14 15:33N 45°24' W 073°34'2 1.9
2014-Sep-14 14:34N 45°25' W 073°31'5 5.0
2014-Sep-14 13:33N 45°30' W 073°31'1 1.4
2014-Sep-14 12:33N 45°31' W 073°31'6 5.6
2014-Sep-14 11:33N 45°37' W 073°30'2 0.2
2014-Sep-14 01:31N 45°38' W 073°29'0 0.0
2014-Sep-13 21:31N 45°38' W 073°29'0 0.0
2014-Sep-13 20:30N 45°38' W 073°29'0 0.0
2014-Sep-13 19:28N 45°38' W 073°29'0 0.0
2014-Sep-13 18:31N 45°38' W 073°29'0 0.0
2014-Sep-13 17:28N 45°38' W 073°29'0 0.0
2014-Sep-13 16:28N 45°38' W 073°29'0 0.0
2014-Sep-13 15:15N 45°38' W 073°29'0 0.0
2014-Sep-13 14:34N 45°38' W 073°29'0 0.0
2014-Sep-13 13:30N 45°38' W 073°29'0 0.0
2014-Sep-13 12:31N 45°38' W 073°29'2 1.6
2014-Sep-13 11:33N 45°40' W 073°28'10 8.9
2014-Sep-13 10:24N 45°48' W 073°20'9 9.7
2014-Sep-13 09:29N 45°55' W 073°13'9 8.1
2014-Sep-13 08:24N 46°03' W 073°07'18 9.9
2014-Sep-13 06:33N 46°14' W 072°46'9 9.5
2014-Sep-13 05:33N 46°18' W 072°34'1010.0
2014-Sep-13 04:33N 46°25' W 072°23'1010.0
2014-Sep-13 03:33N 46°32' W 072°12'  
Track history (hours):
 
Tides and Currents Weather Stations Pressure Air Temp Water Temp Dewpoint Dewpoint Depression Visibility Wind Speed Wind Dir Waves Ship Positions

Edzard Schulte

Last reported at 2014-Sep-15 19:33 UTC. Time now 2014-Sep-20 03:52 UTC.
Position N 43°59' W 076°35'.

Length 145 m; draft 8.1 m.

Type: Tanker. MMSI: 235076245.

Date/timePositionNaut miles runAvg speedWind from/ knotsBaromVisibWave heightAir tempDewpointWater temp
2014-Sep-15 19:33N 43°59' W 076°35'1111.3
2014-Sep-15 18:32N 44°06' W 076°24'8 7.9
2014-Sep-15 17:33N 44°12' W 076°16'114 5.4
2014-Sep-14 20:33N 45°14' W 074°01'6 5.8
2014-Sep-14 19:33N 45°18' W 073°56'1 0.9
2014-Sep-14 18:33N 45°19' W 073°55'3 3.1
2014-Sep-14 17:33N 45°21' W 073°52'8 8.5
2014-Sep-14 16:34N 45°25' W 073°41'5 5.1
2014-Sep-14 15:33N 45°24' W 073°34'2 1.9
2014-Sep-14 14:34N 45°25' W 073°31'5 5.0
2014-Sep-14 13:33N 45°30' W 073°31'1 1.4
2014-Sep-14 12:33N 45°31' W 073°31'6 5.6
2014-Sep-14 11:33N 45°37' W 073°30'2 0.2
2014-Sep-14 01:31N 45°38' W 073°29'0 0.0
2014-Sep-13 21:31N 45°38' W 073°29'0 0.0
2014-Sep-13 20:30N 45°38' W 073°29'0 0.0
2014-Sep-13 19:28N 45°38' W 073°29'0 0.0
2014-Sep-13 18:31N 45°38' W 073°29'0 0.0
2014-Sep-13 17:28N 45°38' W 073°29'0 0.0
2014-Sep-13 16:28N 45°38' W 073°29'0 0.0
2014-Sep-13 15:15N 45°38' W 073°29'0 0.0
2014-Sep-13 14:34N 45°38' W 073°29'0 0.0
2014-Sep-13 13:30N 45°38' W 073°29'0 0.0
2014-Sep-13 12:31N 45°38' W 073°29'2 1.6
2014-Sep-13 11:33N 45°40' W 073°28'10 8.9
2014-Sep-13 10:24N 45°48' W 073°20'9 9.7
2014-Sep-13 09:29N 45°55' W 073°13'9 8.1
2014-Sep-13 08:24N 46°03' W 073°07'18 9.9
2014-Sep-13 06:33N 46°14' W 072°46'9 9.5
2014-Sep-13 05:33N 46°18' W 072°34'1010.0
2014-Sep-13 04:33N 46°25' W 072°23'1010.0
2014-Sep-13 03:33N 46°32' W 072°12'  

Dump ship's entire track history